sensor_id;sensor_type;location;lat;lon;timestamp;P1;durP1;ratioP1;P2;durP2;ratioP2
72087;SDS011;59961;50.232;8.616;2022-08-18T00:02:04;11.20;;;9.03;;
72087;SDS011;59961;50.232;8.616;2022-08-18T00:04:29;11.63;;;9.25;;
72087;SDS011;59961;50.232;8.616;2022-08-18T00:06:55;11.00;;;8.00;;
72087;SDS011;59961;50.232;8.616;2022-08-18T00:09:20;11.43;;;8.57;;
72087;SDS011;59961;50.232;8.616;2022-08-18T00:11:45;10.95;;;8.32;;
72087;SDS011;59961;50.232;8.616;2022-08-18T00:14:14;13.55;;;8.27;;
72087;SDS011;59961;50.232;8.616;2022-08-18T00:16:40;13.55;;;9.02;;
72087;SDS011;59961;50.232;8.616;2022-08-18T00:19:05;14.20;;;9.70;;
72087;SDS011;59961;50.232;8.616;2022-08-18T00:21:31;11.87;;;8.70;;
72087;SDS011;59961;50.232;8.616;2022-08-18T00:23:56;10.57;;;7.78;;
72087;SDS011;59961;50.232;8.616;2022-08-18T00:26:21;12.40;;;8.70;;
72087;SDS011;59961;50.232;8.616;2022-08-18T00:28:46;12.40;;;8.47;;
72087;SDS011;59961;50.232;8.616;2022-08-18T00:31:11;11.18;;;7.40;;
72087;SDS011;59961;50.232;8.616;2022-08-18T00:33:37;10.48;;;7.90;;
72087;SDS011;59961;50.232;8.616;2022-08-18T00:36:02;10.40;;;7.60;;
72087;SDS011;59961;50.232;8.616;2022-08-18T00:38:27;9.77;;;6.80;;
72087;SDS011;59961;50.232;8.616;2022-08-18T00:40:53;10.40;;;7.30;;
72087;SDS011;59961;50.232;8.616;2022-08-18T00:43:23;10.80;;;6.57;;
72087;SDS011;59961;50.232;8.616;2022-08-18T00:45:51;9.02;;;6.50;;
72087;SDS011;59961;50.232;8.616;2022-08-18T00:48:16;10.40;;;6.43;;
72087;SDS011;59961;50.232;8.616;2022-08-18T00:50:45;9.70;;;6.77;;
72087;SDS011;59961;50.232;8.616;2022-08-18T00:53:12;8.77;;;6.20;;
72087;SDS011;59961;50.232;8.616;2022-08-18T00:55:39;8.98;;;6.65;;
72087;SDS011;59961;50.232;8.616;2022-08-18T00:58:06;9.65;;;6.40;;
72087;SDS011;59961;50.232;8.616;2022-08-18T01:00:32;8.50;;;6.18;;
72087;SDS011;59961;50.232;8.616;2022-08-18T01:02:58;9.60;;;6.80;;
72087;SDS011;59961;50.232;8.616;2022-08-18T01:05:28;11.63;;;7.18;;
72087;SDS011;59961;50.232;8.616;2022-08-18T01:07:58;10.20;;;6.68;;
72087;SDS011;59961;50.232;8.616;2022-08-18T01:10:23;10.33;;;6.60;;
72087;SDS011;59961;50.232;8.616;2022-08-18T01:12:50;10.77;;;6.00;;
72087;SDS011;59961;50.232;8.616;2022-08-18T01:15:16;9.05;;;6.90;;
72087;SDS011;59961;50.232;8.616;2022-08-18T01:17:42;9.57;;;6.72;;
72087;SDS011;59961;50.232;8.616;2022-08-18T01:20:27;9.27;;;6.65;;
72087;SDS011;59961;50.232;8.616;2022-08-18T01:23:13;8.70;;;5.90;;
72087;SDS011;59961;50.232;8.616;2022-08-18T01:25:39;9.65;;;6.35;;
72087;SDS011;59961;50.232;8.616;2022-08-18T01:28:23;9.70;;;6.57;;
72087;SDS011;59961;50.232;8.616;2022-08-18T01:30:49;10.98;;;6.70;;
72087;SDS011;59961;50.232;8.616;2022-08-18T01:33:15;9.15;;;6.65;;
72087;SDS011;59961;50.232;8.616;2022-08-18T01:35:41;8.23;;;6.00;;
72087;SDS011;59961;50.232;8.616;2022-08-18T01:38:07;9.48;;;6.03;;
72087;SDS011;59961;50.232;8.616;2022-08-18T01:40:32;10.17;;;6.80;;
72087;SDS011;59961;50.232;8.616;2022-08-18T01:42:57;11.65;;;7.55;;
72087;SDS011;59961;50.232;8.616;2022-08-18T01:45:23;10.40;;;7.40;;
72087;SDS011;59961;50.232;8.616;2022-08-18T01:47:48;11.18;;;7.35;;
72087;SDS011;59961;50.232;8.616;2022-08-18T01:50:15;11.32;;;7.90;;
72087;SDS011;59961;50.232;8.616;2022-08-18T01:52:40;10.13;;;7.73;;
72087;SDS011;59961;50.232;8.616;2022-08-18T01:55:06;10.33;;;8.37;;
72087;SDS011;59961;50.232;8.616;2022-08-18T01:57:32;11.45;;;8.13;;
72087;SDS011;59961;50.232;8.616;2022-08-18T01:59:57;11.07;;;8.70;;
72087;SDS011;59961;50.232;8.616;2022-08-18T02:02:25;13.57;;;8.80;;
72087;SDS011;59961;50.232;8.616;2022-08-18T02:04:56;14.15;;;8.90;;
72087;SDS011;59961;50.232;8.616;2022-08-18T02:07:23;11.05;;;7.88;;
72087;SDS011;59961;50.232;8.616;2022-08-18T02:09:48;13.98;;;8.07;;
72087;SDS011;59961;50.232;8.616;2022-08-18T02:12:13;9.90;;;7.60;;
72087;SDS011;59961;50.232;8.616;2022-08-18T02:14:39;12.80;;;7.95;;
72087;SDS011;59961;50.232;8.616;2022-08-18T02:17:05;11.97;;;8.13;;
72087;SDS011;59961;50.232;8.616;2022-08-18T02:19:32;13.23;;;8.55;;
72087;SDS011;59961;50.232;8.616;2022-08-18T02:21:58;12.93;;;8.27;;
72087;SDS011;59961;50.232;8.616;2022-08-18T02:24:24;11.45;;;8.60;;
72087;SDS011;59961;50.232;8.616;2022-08-18T02:26:49;13.73;;;8.50;;
72087;SDS011;59961;50.232;8.616;2022-08-18T02:29:14;12.65;;;8.15;;
72087;SDS011;59961;50.232;8.616;2022-08-18T02:31:39;12.50;;;8.60;;
72087;SDS011;59961;50.232;8.616;2022-08-18T02:34:04;11.55;;;8.25;;
72087;SDS011;59961;50.232;8.616;2022-08-18T02:36:29;11.05;;;7.93;;
72087;SDS011;59961;50.232;8.616;2022-08-18T02:38:55;11.18;;;7.68;;
72087;SDS011;59961;50.232;8.616;2022-08-18T02:41:20;10.50;;;7.57;;
72087;SDS011;59961;50.232;8.616;2022-08-18T02:43:46;12.77;;;8.13;;
72087;SDS011;59961;50.232;8.616;2022-08-18T02:46:12;11.95;;;7.70;;
72087;SDS011;59961;50.232;8.616;2022-08-18T02:48:37;12.03;;;8.17;;
72087;SDS011;59961;50.232;8.616;2022-08-18T02:53:28;11.57;;;8.53;;
72087;SDS011;59961;50.232;8.616;2022-08-18T02:55:54;10.93;;;8.17;;
72087;SDS011;59961;50.232;8.616;2022-08-18T02:58:20;12.23;;;7.87;;
72087;SDS011;59961;50.232;8.616;2022-08-18T03:00:45;13.20;;;8.73;;
72087;SDS011;59961;50.232;8.616;2022-08-18T03:03:11;12.70;;;8.70;;
72087;SDS011;59961;50.232;8.616;2022-08-18T03:05:37;13.00;;;9.00;;
72087;SDS011;59961;50.232;8.616;2022-08-18T03:08:02;15.05;;;8.95;;
72087;SDS011;59961;50.232;8.616;2022-08-18T03:10:27;13.73;;;8.60;;
72087;SDS011;59961;50.232;8.616;2022-08-18T03:12:52;12.93;;;8.50;;
72087;SDS011;59961;50.232;8.616;2022-08-18T03:15:18;12.07;;;8.38;;
72087;SDS011;59961;50.232;8.616;2022-08-18T03:17:43;12.10;;;8.43;;
72087;SDS011;59961;50.232;8.616;2022-08-18T03:20:08;13.10;;;9.07;;
72087;SDS011;59961;50.232;8.616;2022-08-18T03:22:33;10.73;;;8.17;;
72087;SDS011;59961;50.232;8.616;2022-08-18T03:24:59;13.53;;;8.17;;
72087;SDS011;59961;50.232;8.616;2022-08-18T03:27:24;11.70;;;8.63;;
72087;SDS011;59961;50.232;8.616;2022-08-18T03:29:49;14.53;;;8.53;;
72087;SDS011;59961;50.232;8.616;2022-08-18T03:32:15;11.47;;;7.63;;
72087;SDS011;59961;50.232;8.616;2022-08-18T03:34:40;10.60;;;7.87;;
72087;SDS011;59961;50.232;8.616;2022-08-18T03:37:07;12.93;;;8.25;;
72087;SDS011;59961;50.232;8.616;2022-08-18T03:39:32;11.80;;;7.87;;
72087;SDS011;59961;50.232;8.616;2022-08-18T03:41:57;12.13;;;7.60;;
72087;SDS011;59961;50.232;8.616;2022-08-18T03:44:23;10.33;;;7.70;;
72087;SDS011;59961;50.232;8.616;2022-08-18T03:46:49;11.40;;;7.63;;
72087;SDS011;59961;50.232;8.616;2022-08-18T03:49:15;9.82;;;7.22;;
72087;SDS011;59961;50.232;8.616;2022-08-18T03:51:42;11.15;;;7.10;;
72087;SDS011;59961;50.232;8.616;2022-08-18T03:54:08;11.33;;;7.50;;
72087;SDS011;59961;50.232;8.616;2022-08-18T03:56:34;9.35;;;6.72;;
72087;SDS011;59961;50.232;8.616;2022-08-18T03:59:02;11.05;;;7.28;;
72087;SDS011;59961;50.232;8.616;2022-08-18T04:01:29;10.03;;;6.97;;
72087;SDS011;59961;50.232;8.616;2022-08-18T04:03:57;10.82;;;7.32;;
72087;SDS011;59961;50.232;8.616;2022-08-18T04:06:33;11.13;;;7.05;;
72087;SDS011;59961;50.232;8.616;2022-08-18T04:09:00;10.10;;;7.03;;
72087;SDS011;59961;50.232;8.616;2022-08-18T04:11:26;9.93;;;7.35;;
72087;SDS011;59961;50.232;8.616;2022-08-18T04:13:54;10.60;;;7.20;;
72087;SDS011;59961;50.232;8.616;2022-08-18T04:16:26;9.48;;;7.05;;
72087;SDS011;59961;50.232;8.616;2022-08-18T04:18:52;11.40;;;6.72;;
72087;SDS011;59961;50.232;8.616;2022-08-18T04:21:17;10.33;;;7.17;;
72087;SDS011;59961;50.232;8.616;2022-08-18T04:23:42;9.63;;;6.47;;
72087;SDS011;59961;50.232;8.616;2022-08-18T04:26:08;11.00;;;7.47;;
72087;SDS011;59961;50.232;8.616;2022-08-18T04:28:35;9.57;;;6.95;;
72087;SDS011;59961;50.232;8.616;2022-08-18T04:31:07;9.57;;;6.87;;
72087;SDS011;59961;50.232;8.616;2022-08-18T04:33:33;9.65;;;6.57;;
72087;SDS011;59961;50.232;8.616;2022-08-18T04:35:58;10.52;;;7.35;;
72087;SDS011;59961;50.232;8.616;2022-08-18T04:38:23;11.18;;;7.60;;
72087;SDS011;59961;50.232;8.616;2022-08-18T04:40:48;11.53;;;6.73;;
72087;SDS011;59961;50.232;8.616;2022-08-18T04:43:14;12.80;;;7.10;;
72087;SDS011;59961;50.232;8.616;2022-08-18T04:45:45;9.70;;;6.97;;
72087;SDS011;59961;50.232;8.616;2022-08-18T04:48:11;11.23;;;6.90;;
72087;SDS011;59961;50.232;8.616;2022-08-18T04:50:36;10.43;;;7.03;;
72087;SDS011;59961;50.232;8.616;2022-08-18T04:53:02;9.38;;;6.28;;
72087;SDS011;59961;50.232;8.616;2022-08-18T04:55:47;9.60;;;6.60;;
72087;SDS011;59961;50.232;8.616;2022-08-18T04:58:12;9.90;;;6.40;;
72087;SDS011;59961;50.232;8.616;2022-08-18T05:00:40;9.60;;;6.30;;
72087;SDS011;59961;50.232;8.616;2022-08-18T05:03:07;9.63;;;6.43;;
72087;SDS011;59961;50.232;8.616;2022-08-18T05:05:32;9.27;;;6.73;;
72087;SDS011;59961;50.232;8.616;2022-08-18T05:07:57;11.18;;;6.70;;
72087;SDS011;59961;50.232;8.616;2022-08-18T05:10:23;9.25;;;6.38;;
72087;SDS011;59961;50.232;8.616;2022-08-18T05:12:48;10.77;;;6.70;;
72087;SDS011;59961;50.232;8.616;2022-08-18T05:15:13;9.47;;;6.80;;
72087;SDS011;59961;50.232;8.616;2022-08-18T05:17:38;11.63;;;7.32;;
72087;SDS011;59961;50.232;8.616;2022-08-18T05:20:05;9.97;;;6.87;;
72087;SDS011;59961;50.232;8.616;2022-08-18T05:22:34;10.13;;;6.82;;
72087;SDS011;59961;50.232;8.616;2022-08-18T05:25:00;10.73;;;7.03;;
72087;SDS011;59961;50.232;8.616;2022-08-18T05:27:30;9.83;;;6.77;;
72087;SDS011;59961;50.232;8.616;2022-08-18T05:29:55;12.65;;;6.97;;
72087;SDS011;59961;50.232;8.616;2022-08-18T05:32:20;10.52;;;6.97;;
72087;SDS011;59961;50.232;8.616;2022-08-18T05:34:46;11.02;;;7.05;;
72087;SDS011;59961;50.232;8.616;2022-08-18T05:37:27;10.83;;;7.27;;
72087;SDS011;59961;50.232;8.616;2022-08-18T05:39:57;10.43;;;6.85;;
72087;SDS011;59961;50.232;8.616;2022-08-18T05:42:25;12.85;;;7.30;;
72087;SDS011;59961;50.232;8.616;2022-08-18T05:44:51;10.27;;;6.93;;
72087;SDS011;59961;50.232;8.616;2022-08-18T05:49:48;11.63;;;7.93;;
72087;SDS011;59961;50.232;8.616;2022-08-18T05:52:15;12.43;;;7.47;;
72087;SDS011;59961;50.232;8.616;2022-08-18T05:54:42;12.83;;;7.87;;
72087;SDS011;59961;50.232;8.616;2022-08-18T05:57:29;10.73;;;6.97;;
72087;SDS011;59961;50.232;8.616;2022-08-18T05:59:56;13.52;;;8.38;;
72087;SDS011;59961;50.232;8.616;2022-08-18T06:04:50;13.63;;;8.57;;
72087;SDS011;59961;50.232;8.616;2022-08-18T06:07:29;13.77;;;8.10;;
72087;SDS011;59961;50.232;8.616;2022-08-18T06:09:55;13.98;;;8.50;;
72087;SDS011;59961;50.232;8.616;2022-08-18T06:12:23;17.70;;;8.50;;
72087;SDS011;59961;50.232;8.616;2022-08-18T06:14:49;14.27;;;8.60;;
72087;SDS011;59961;50.232;8.616;2022-08-18T06:17:20;15.73;;;8.32;;
72087;SDS011;59961;50.232;8.616;2022-08-18T06:20:04;15.25;;;8.52;;
72087;SDS011;59961;50.232;8.616;2022-08-18T06:22:38;12.80;;;8.40;;
72087;SDS011;59961;50.232;8.616;2022-08-18T06:25:16;16.10;;;7.83;;
72087;SDS011;59961;50.232;8.616;2022-08-18T06:27:46;11.90;;;7.38;;
72087;SDS011;59961;50.232;8.616;2022-08-18T06:30:19;16.35;;;7.82;;
72087;SDS011;59961;50.232;8.616;2022-08-18T06:40:29;12.33;;;7.20;;
72087;SDS011;59961;50.232;8.616;2022-08-18T06:42:54;12.65;;;7.35;;
72087;SDS011;59961;50.232;8.616;2022-08-18T06:45:19;14.20;;;7.33;;
72087;SDS011;59961;50.232;8.616;2022-08-18T06:47:53;9.93;;;7.03;;
72087;SDS011;59961;50.232;8.616;2022-08-18T07:00:43;11.38;;;8.18;;
72087;SDS011;59961;50.232;8.616;2022-08-18T07:03:11;13.88;;;8.10;;
72087;SDS011;59961;50.232;8.616;2022-08-18T07:05:36;13.85;;;9.45;;
72087;SDS011;59961;50.232;8.616;2022-08-18T07:08:10;14.15;;;8.68;;
72087;SDS011;59961;50.232;8.616;2022-08-18T07:10:38;13.33;;;8.47;;
72087;SDS011;59961;50.232;8.616;2022-08-18T07:15:40;12.88;;;8.85;;
72087;SDS011;59961;50.232;8.616;2022-08-18T07:18:07;14.65;;;9.55;;
72087;SDS011;59961;50.232;8.616;2022-08-18T07:20:44;12.50;;;8.83;;
72087;SDS011;59961;50.232;8.616;2022-08-18T07:23:19;15.40;;;8.00;;
72087;SDS011;59961;50.232;8.616;2022-08-18T07:25:57;14.75;;;9.25;;
72087;SDS011;59961;50.232;8.616;2022-08-18T07:28:27;17.05;;;9.57;;
72087;SDS011;59961;50.232;8.616;2022-08-18T07:30:53;14.40;;;10.27;;
72087;SDS011;59961;50.232;8.616;2022-08-18T07:33:31;14.57;;;8.90;;
72087;SDS011;59961;50.232;8.616;2022-08-18T07:35:57;11.80;;;8.10;;
72087;SDS011;59961;50.232;8.616;2022-08-18T07:38:35;14.87;;;8.50;;
72087;SDS011;59961;50.232;8.616;2022-08-18T07:46:40;13.73;;;9.20;;
72087;SDS011;59961;50.232;8.616;2022-08-18T07:49:07;13.52;;;8.75;;
72087;SDS011;59961;50.232;8.616;2022-08-18T07:51:46;13.00;;;9.00;;
72087;SDS011;59961;50.232;8.616;2022-08-18T07:54:21;13.33;;;8.70;;
72087;SDS011;59961;50.232;8.616;2022-08-18T07:57:13;17.92;;;9.25;;
72087;SDS011;59961;50.232;8.616;2022-08-18T07:59:38;20.17;;;9.88;;
72087;SDS011;59961;50.232;8.616;2022-08-18T08:04:58;14.50;;;9.18;;
72087;SDS011;59961;50.232;8.616;2022-08-18T08:07:28;13.60;;;8.30;;
72087;SDS011;59961;50.232;8.616;2022-08-18T08:10:00;17.25;;;9.38;;
72087;SDS011;59961;50.232;8.616;2022-08-18T08:13:01;14.43;;;9.30;;
72087;SDS011;59961;50.232;8.616;2022-08-18T08:15:40;16.55;;;10.38;;
72087;SDS011;59961;50.232;8.616;2022-08-18T08:23:12;15.20;;;9.73;;
72087;SDS011;59961;50.232;8.616;2022-08-18T08:25:46;14.90;;;10.57;;
72087;SDS011;59961;50.232;8.616;2022-08-18T08:28:20;15.93;;;9.45;;
72087;SDS011;59961;50.232;8.616;2022-08-18T08:33:32;19.00;;;10.53;;
72087;SDS011;59961;50.232;8.616;2022-08-18T08:36:13;16.52;;;11.48;;
72087;SDS011;59961;50.232;8.616;2022-08-18T08:38:43;18.38;;;11.23;;
72087;SDS011;59961;50.232;8.616;2022-08-18T08:41:20;17.10;;;11.40;;
72087;SDS011;59961;50.232;8.616;2022-08-18T08:43:50;17.90;;;10.77;;
72087;SDS011;59961;50.232;8.616;2022-08-18T08:46:21;16.23;;;10.30;;
72087;SDS011;59961;50.232;8.616;2022-08-18T08:48:49;17.30;;;10.50;;
72087;SDS011;59961;50.232;8.616;2022-08-18T08:51:22;16.70;;;10.45;;
72087;SDS011;59961;50.232;8.616;2022-08-18T08:53:49;16.55;;;10.18;;
72087;SDS011;59961;50.232;8.616;2022-08-18T08:56:17;14.35;;;9.95;;
72087;SDS011;59961;50.232;8.616;2022-08-18T08:58:54;14.90;;;10.30;;
72087;SDS011;59961;50.232;8.616;2022-08-18T09:03:55;15.60;;;9.93;;
72087;SDS011;59961;50.232;8.616;2022-08-18T09:09:13;15.10;;;9.68;;
72087;SDS011;59961;50.232;8.616;2022-08-18T09:24:28;15.80;;;9.57;;
72087;SDS011;59961;50.232;8.616;2022-08-18T09:27:42;16.67;;;10.73;;
72087;SDS011;59961;50.232;8.616;2022-08-18T09:29:46;15.10;;;9.90;;
72087;SDS011;59961;50.232;8.616;2022-08-18T09:37:18;15.23;;;9.30;;
72087;SDS011;59961;50.232;8.616;2022-08-18T09:39:58;16.10;;;10.43;;
72087;SDS011;59961;50.232;8.616;2022-08-18T09:42:52;17.70;;;9.45;;
72087;SDS011;59961;50.232;8.616;2022-08-18T09:48:00;17.02;;;9.60;;
72087;SDS011;59961;50.232;8.616;2022-08-18T09:52:51;19.38;;;10.30;;
72087;SDS011;59961;50.232;8.616;2022-08-18T09:57:42;13.02;;;8.60;;
72087;SDS011;59961;50.232;8.616;2022-08-18T10:15:28;17.10;;;11.15;;
72087;SDS011;59961;50.232;8.616;2022-08-18T10:18:17;13.60;;;9.83;;
72087;SDS011;59961;50.232;8.616;2022-08-18T10:26:00;15.50;;;9.82;;
72087;SDS011;59961;50.232;8.616;2022-08-18T10:31:12;13.02;;;9.05;;
72087;SDS011;59961;50.232;8.616;2022-08-18T10:33:54;13.43;;;9.70;;
72087;SDS011;59961;50.232;8.616;2022-08-18T10:39:03;12.93;;;9.27;;
72087;SDS011;59961;50.232;8.616;2022-08-18T10:41:29;14.30;;;9.80;;
72087;SDS011;59961;50.232;8.616;2022-08-18T10:43:55;14.07;;;9.10;;
72087;SDS011;59961;50.232;8.616;2022-08-18T10:46:22;13.70;;;9.60;;
72087;SDS011;59961;50.232;8.616;2022-08-18T10:48:59;12.50;;;8.53;;
72087;SDS011;59961;50.232;8.616;2022-08-18T10:51:28;13.75;;;9.85;;
72087;SDS011;59961;50.232;8.616;2022-08-18T10:54:03;14.45;;;9.32;;
72087;SDS011;59961;50.232;8.616;2022-08-18T11:04:37;14.18;;;9.00;;
72087;SDS011;59961;50.232;8.616;2022-08-18T11:09:30;13.17;;;9.17;;
72087;SDS011;59961;50.232;8.616;2022-08-18T11:11:58;12.23;;;9.68;;
72087;SDS011;59961;50.232;8.616;2022-08-18T11:14:39;14.48;;;9.82;;
72087;SDS011;59961;50.232;8.616;2022-08-18T11:17:12;13.47;;;9.53;;
72087;SDS011;59961;50.232;8.616;2022-08-18T11:19:40;14.75;;;8.98;;
72087;SDS011;59961;50.232;8.616;2022-08-18T11:22:19;14.38;;;9.77;;
72087;SDS011;59961;50.232;8.616;2022-08-18T11:24:44;14.30;;;9.70;;
72087;SDS011;59961;50.232;8.616;2022-08-18T11:27:16;12.57;;;9.07;;
72087;SDS011;59961;50.232;8.616;2022-08-18T11:29:42;13.10;;;9.07;;
72087;SDS011;59961;50.232;8.616;2022-08-18T11:32:14;11.97;;;8.70;;
72087;SDS011;59961;50.232;8.616;2022-08-18T11:37:18;12.23;;;8.70;;
72087;SDS011;59961;50.232;8.616;2022-08-18T11:39:48;12.93;;;8.60;;
72087;SDS011;59961;50.232;8.616;2022-08-18T11:42:49;18.08;;;9.60;;
72087;SDS011;59961;50.232;8.616;2022-08-18T11:45:18;12.90;;;9.83;;
72087;SDS011;59961;50.232;8.616;2022-08-18T11:50:28;12.95;;;8.80;;
72087;SDS011;59961;50.232;8.616;2022-08-18T11:52:54;11.13;;;8.63;;
72087;SDS011;59961;50.232;8.616;2022-08-18T11:55:27;10.50;;;8.35;;
72087;SDS011;59961;50.232;8.616;2022-08-18T11:57:54;11.87;;;8.07;;
72087;SDS011;59961;50.232;8.616;2022-08-18T12:03:04;11.10;;;8.10;;
72087;SDS011;59961;50.232;8.616;2022-08-18T12:05:39;10.98;;;7.85;;
72087;SDS011;59961;50.232;8.616;2022-08-18T12:08:15;11.43;;;8.40;;
72087;SDS011;59961;50.232;8.616;2022-08-18T12:10:40;11.97;;;8.40;;
72087;SDS011;59961;50.232;8.616;2022-08-18T12:13:05;10.60;;;7.53;;
72087;SDS011;59961;50.232;8.616;2022-08-18T12:15:31;9.83;;;8.20;;
72087;SDS011;59961;50.232;8.616;2022-08-18T12:17:57;11.73;;;7.68;;
72087;SDS011;59961;50.232;8.616;2022-08-18T12:20:22;11.50;;;8.00;;
72087;SDS011;59961;50.232;8.616;2022-08-18T12:22:47;12.13;;;7.47;;
72087;SDS011;59961;50.232;8.616;2022-08-18T12:25:14;13.02;;;7.93;;
72087;SDS011;59961;50.232;8.616;2022-08-18T12:27:40;10.27;;;7.85;;
72087;SDS011;59961;50.232;8.616;2022-08-18T12:30:07;11.73;;;7.67;;
72087;SDS011;59961;50.232;8.616;2022-08-18T12:32:32;10.27;;;7.22;;
72087;SDS011;59961;50.232;8.616;2022-08-18T12:34:58;10.10;;;7.23;;
72087;SDS011;59961;50.232;8.616;2022-08-18T12:37:25;10.95;;;6.93;;
72087;SDS011;59961;50.232;8.616;2022-08-18T12:39:50;12.70;;;6.97;;
72087;SDS011;59961;50.232;8.616;2022-08-18T12:42:16;11.20;;;7.30;;
72087;SDS011;59961;50.232;8.616;2022-08-18T12:44:41;9.80;;;7.07;;
72087;SDS011;59961;50.232;8.616;2022-08-18T12:47:10;8.68;;;6.40;;
72087;SDS011;59961;50.232;8.616;2022-08-18T12:49:36;11.63;;;7.50;;
72087;SDS011;59961;50.232;8.616;2022-08-18T12:52:01;8.90;;;7.13;;
72087;SDS011;59961;50.232;8.616;2022-08-18T12:54:27;10.63;;;7.20;;
72087;SDS011;59961;50.232;8.616;2022-08-18T12:56:52;9.67;;;6.80;;
72087;SDS011;59961;50.232;8.616;2022-08-18T12:59:18;9.32;;;6.82;;
72087;SDS011;59961;50.232;8.616;2022-08-18T13:01:43;10.27;;;7.00;;
72087;SDS011;59961;50.232;8.616;2022-08-18T13:04:08;8.30;;;6.40;;
72087;SDS011;59961;50.232;8.616;2022-08-18T13:06:37;10.00;;;7.37;;
72087;SDS011;59961;50.232;8.616;2022-08-18T13:09:02;11.05;;;7.95;;
72087;SDS011;59961;50.232;8.616;2022-08-18T13:11:28;11.18;;;7.60;;
72087;SDS011;59961;50.232;8.616;2022-08-18T13:13:53;10.80;;;7.97;;
72087;SDS011;59961;50.232;8.616;2022-08-18T13:16:19;10.10;;;7.23;;
72087;SDS011;59961;50.232;8.616;2022-08-18T13:18:44;10.27;;;7.63;;
72087;SDS011;59961;50.232;8.616;2022-08-18T13:21:13;9.03;;;6.90;;
72087;SDS011;59961;50.232;8.616;2022-08-18T13:23:38;10.43;;;7.03;;
72087;SDS011;59961;50.232;8.616;2022-08-18T13:26:04;7.95;;;6.18;;
72087;SDS011;59961;50.232;8.616;2022-08-18T13:28:31;9.15;;;6.60;;
72087;SDS011;59961;50.232;8.616;2022-08-18T13:30:56;10.17;;;7.27;;
72087;SDS011;59961;50.232;8.616;2022-08-18T13:33:21;9.20;;;6.70;;
72087;SDS011;59961;50.232;8.616;2022-08-18T13:35:46;11.07;;;7.75;;
72087;SDS011;59961;50.232;8.616;2022-08-18T13:38:13;9.60;;;7.25;;
72087;SDS011;59961;50.232;8.616;2022-08-18T13:40:38;10.27;;;7.70;;
72087;SDS011;59961;50.232;8.616;2022-08-18T13:43:03;9.03;;;6.70;;
72087;SDS011;59961;50.232;8.616;2022-08-18T13:45:29;9.67;;;7.60;;
72087;SDS011;59961;50.232;8.616;2022-08-18T13:47:54;11.67;;;7.77;;
72087;SDS011;59961;50.232;8.616;2022-08-18T13:50:19;9.53;;;7.13;;
72087;SDS011;59961;50.232;8.616;2022-08-18T13:52:45;11.13;;;6.87;;
72087;SDS011;59961;50.232;8.616;2022-08-18T13:55:14;11.60;;;7.10;;
72087;SDS011;59961;50.232;8.616;2022-08-18T13:57:40;8.30;;;6.38;;
72087;SDS011;59961;50.232;8.616;2022-08-18T14:00:12;11.32;;;7.18;;
72087;SDS011;59961;50.232;8.616;2022-08-18T14:02:38;10.67;;;6.67;;
72087;SDS011;59961;50.232;8.616;2022-08-18T14:05:04;9.85;;;7.57;;
72087;SDS011;59961;50.232;8.616;2022-08-18T14:07:29;10.47;;;7.00;;
72087;SDS011;59961;50.232;8.616;2022-08-18T14:09:55;9.75;;;6.68;;
72087;SDS011;59961;50.232;8.616;2022-08-18T14:12:21;9.93;;;6.57;;
72087;SDS011;59961;50.232;8.616;2022-08-18T14:14:48;10.30;;;6.72;;
72087;SDS011;59961;50.232;8.616;2022-08-18T14:17:13;10.20;;;7.05;;
72087;SDS011;59961;50.232;8.616;2022-08-18T14:19:38;8.67;;;6.73;;
72087;SDS011;59961;50.232;8.616;2022-08-18T14:22:22;10.23;;;6.90;;
72087;SDS011;59961;50.232;8.616;2022-08-18T14:25:06;10.50;;;6.75;;
72087;SDS011;59961;50.232;8.616;2022-08-18T14:27:50;10.15;;;6.10;;
72087;SDS011;59961;50.232;8.616;2022-08-18T14:30:15;9.33;;;6.87;;
72087;SDS011;59961;50.232;8.616;2022-08-18T14:32:42;12.10;;;6.63;;
72087;SDS011;59961;50.232;8.616;2022-08-18T14:35:09;10.90;;;6.80;;
72087;SDS011;59961;50.232;8.616;2022-08-18T14:37:34;8.45;;;6.55;;
72087;SDS011;59961;50.232;8.616;2022-08-18T14:40:00;9.43;;;6.73;;
72087;SDS011;59961;50.232;8.616;2022-08-18T14:42:25;10.63;;;7.43;;
72087;SDS011;59961;50.232;8.616;2022-08-18T14:44:51;8.20;;;6.30;;
72087;SDS011;59961;50.232;8.616;2022-08-18T14:47:16;10.27;;;6.67;;
72087;SDS011;59961;50.232;8.616;2022-08-18T14:49:41;9.97;;;6.70;;
72087;SDS011;59961;50.232;8.616;2022-08-18T14:52:07;9.50;;;6.57;;
72087;SDS011;59961;50.232;8.616;2022-08-18T14:54:34;10.40;;;6.60;;
72087;SDS011;59961;50.232;8.616;2022-08-18T14:57:00;10.10;;;6.30;;
72087;SDS011;59961;50.232;8.616;2022-08-18T14:59:26;8.27;;;6.13;;
72087;SDS011;59961;50.232;8.616;2022-08-18T15:01:52;7.80;;;5.83;;
72087;SDS011;59961;50.232;8.616;2022-08-18T15:04:17;11.05;;;6.60;;
72087;SDS011;59961;50.232;8.616;2022-08-18T15:06:42;9.27;;;7.00;;
72087;SDS011;59961;50.232;8.616;2022-08-18T15:09:08;8.35;;;6.35;;
72087;SDS011;59961;50.232;8.616;2022-08-18T15:11:33;8.70;;;6.40;;
72087;SDS011;59961;50.232;8.616;2022-08-18T15:13:58;8.77;;;6.70;;
72087;SDS011;59961;50.232;8.616;2022-08-18T15:16:24;9.20;;;6.40;;
72087;SDS011;59961;50.232;8.616;2022-08-18T15:18:50;9.05;;;6.65;;
72087;SDS011;59961;50.232;8.616;2022-08-18T15:21:15;9.00;;;6.50;;
72087;SDS011;59961;50.232;8.616;2022-08-18T15:23:59;9.03;;;6.40;;
72087;SDS011;59961;50.232;8.616;2022-08-18T15:26:43;8.95;;;6.15;;
72087;SDS011;59961;50.232;8.616;2022-08-18T15:29:08;8.60;;;6.80;;
72087;SDS011;59961;50.232;8.616;2022-08-18T15:31:34;8.52;;;6.32;;
72087;SDS011;59961;50.232;8.616;2022-08-18T15:33:59;9.63;;;6.10;;
72087;SDS011;59961;50.232;8.616;2022-08-18T15:36:24;8.93;;;6.37;;
72087;SDS011;59961;50.232;8.616;2022-08-18T15:38:50;11.83;;;6.33;;
72087;SDS011;59961;50.232;8.616;2022-08-18T15:41:33;7.57;;;6.07;;
72087;SDS011;59961;50.232;8.616;2022-08-18T15:43:58;9.82;;;6.95;;
72087;SDS011;59961;50.232;8.616;2022-08-18T15:46:24;9.50;;;7.03;;
72087;SDS011;59961;50.232;8.616;2022-08-18T15:48:49;9.27;;;7.10;;
72087;SDS011;59961;50.232;8.616;2022-08-18T15:51:15;9.30;;;6.90;;
72087;SDS011;59961;50.232;8.616;2022-08-18T15:53:40;8.45;;;7.00;;
72087;SDS011;59961;50.232;8.616;2022-08-18T15:56:11;8.90;;;6.50;;
72087;SDS011;59961;50.232;8.616;2022-08-18T15:58:36;8.95;;;6.70;;
72087;SDS011;59961;50.232;8.616;2022-08-18T16:01:01;8.83;;;6.53;;
72087;SDS011;59961;50.232;8.616;2022-08-18T16:03:26;10.10;;;7.45;;
72087;SDS011;59961;50.232;8.616;2022-08-18T16:05:53;9.87;;;7.63;;
72087;SDS011;59961;50.232;8.616;2022-08-18T16:08:22;10.48;;;7.43;;
72087;SDS011;59961;50.232;8.616;2022-08-18T16:10:47;12.57;;;8.70;;
72087;SDS011;59961;50.232;8.616;2022-08-18T16:13:13;12.33;;;8.70;;
72087;SDS011;59961;50.232;8.616;2022-08-18T16:15:40;14.30;;;8.77;;
72087;SDS011;59961;50.232;8.616;2022-08-18T16:18:06;12.13;;;8.10;;
72087;SDS011;59961;50.232;8.616;2022-08-18T16:20:32;13.30;;;9.02;;
72087;SDS011;59961;50.232;8.616;2022-08-18T16:22:58;12.77;;;9.18;;
72087;SDS011;59961;50.232;8.616;2022-08-18T16:25:23;15.27;;;9.70;;
72087;SDS011;59961;50.232;8.616;2022-08-18T16:27:49;12.80;;;8.60;;
72087;SDS011;59961;50.232;8.616;2022-08-18T16:30:16;15.32;;;10.18;;
72087;SDS011;59961;50.232;8.616;2022-08-18T16:32:41;12.20;;;9.18;;
72087;SDS011;59961;50.232;8.616;2022-08-18T16:35:07;12.70;;;8.30;;
72087;SDS011;59961;50.232;8.616;2022-08-18T16:37:32;11.40;;;8.88;;
72087;SDS011;59961;50.232;8.616;2022-08-18T16:39:58;12.77;;;9.50;;
72087;SDS011;59961;50.232;8.616;2022-08-18T16:42:23;14.30;;;9.87;;
72087;SDS011;59961;50.232;8.616;2022-08-18T16:44:48;13.93;;;9.17;;